Time;durP1;ratioP1;P1;durP2;ratioP2;P2;SDS_P1;SDS_P2;PMS_P1;PMS_P2;Temp;Humidity;BMP_temperature;BMP_pressure;BME280_temperature;BME280_humidity;BME280_pressure;Samples;Min_cycle;Max_cycle;Signal;HPM_P1;HPM_P2
2021/11/28 00:00:04;;;;;;;42.00;7.68;;;22.30;55.70;;;;;;5161494;28;20064;-47
2021/11/28 00:02:37;;;;;;;37.17;7.20;;;22.30;55.70;;;;;;5173932;28;20054;-52
2021/11/28 00:05:10;;;;;;;48.65;6.57;;;22.30;55.70;;;;;;5163681;28;20721;-49
2021/11/28 00:12:59;;;;;;;36.25;5.80;;;22.20;55.60;;;;;;5168478;28;20061;-49
2021/11/28 00:15:32;;;;;;;32.65;5.38;;;22.20;55.60;;;;;;5164555;28;20069;-53
2021/11/28 00:18:07;;;;;;;51.80;6.17;;;22.20;55.70;;;;;;5168566;28;20041;-47
2021/11/28 00:20:39;;;;;;;34.55;6.13;;;22.20;55.60;;;;;;5165019;28;20061;-52
2021/11/28 00:23:12;;;;;;;39.33;6.13;;;22.20;55.70;;;;;;5147833;28;20068;-46
2021/11/28 00:25:46;;;;;;;19.90;5.35;;;22.20;55.70;;;;;;5167373;28;20046;-48
2021/11/28 00:28:21;;;;;;;28.08;5.25;;;22.20;55.70;;;;;;5154628;28;20049;-47
2021/11/28 00:30:55;;;;;;;32.05;5.82;;;22.20;55.70;;;;;;5160536;28;20529;-50
2021/11/28 00:33:27;;;;;;;32.70;5.97;;;22.20;55.80;;;;;;5147546;28;20110;-46
2021/11/28 00:36:00;;;;;;;28.85;4.97;;;22.20;55.70;;;;;;5184575;28;20054;-45
2021/11/28 00:38:33;;;;;;;28.27;5.05;;;22.20;55.70;;;;;;5168098;28;20064;-47
2021/11/28 00:41:05;;;;;;;22.95;5.30;;;22.10;55.60;;;;;;5170718;28;20056;-46
2021/11/28 00:43:38;;;;;;;24.03;5.97;;;22.20;55.60;;;;;;5165717;28;20045;-47
2021/11/28 00:46:10;;;;;;;33.40;5.37;;;22.10;55.70;;;;;;5139370;28;20049;-48
2021/11/28 00:48:45;;;;;;;26.00;5.30;;;22.10;55.70;;;;;;5161956;28;20045;-46
2021/11/28 00:53:51;;;;;;;27.63;5.05;;;22.10;55.90;;;;;;5175726;28;19925;-46
2021/11/28 00:56:24;;;;;;;15.38;4.35;;;22.10;55.90;;;;;;5176597;28;20077;-47
2021/11/28 00:58:57;;;;;;;29.75;5.97;;;22.10;55.80;;;;;;5170926;28;20054;-47
2021/11/28 01:01:29;;;;;;;16.80;4.28;;;22.10;55.90;;;;;;5171519;28;20573;-51
2021/11/28 01:04:03;;;;;;;26.48;5.03;;;22.10;55.90;;;;;;5151417;28;20326;-47
2021/11/28 01:06:36;;;;;;;24.02;4.68;;;22.10;56.00;;;;;;5159213;28;20049;-49
2021/11/28 01:09:08;;;;;;;31.90;5.57;;;22.10;56.00;;;;;;5169853;28;20045;-44
2021/11/28 01:11:41;;;;;;;25.88;3.63;;;22.10;56.60;;;;;;5159398;28;20041;-47
2021/11/28 01:14:14;;;;;;;23.73;4.40;;;22.10;56.00;;;;;;5140071;28;21775;-53
2021/11/28 01:16:47;;;;;;;22.27;4.60;;;22.10;56.00;;;;;;5177450;28;20552;-46
2021/11/28 01:19:19;;;;;;;21.60;4.63;;;22.10;56.00;;;;;;5163084;28;20513;-47
2021/11/28 01:21:59;;;;;;;23.65;4.95;;;22.10;55.90;;;;;;5169695;28;20046;-47
2021/11/28 01:24:33;;;;;;;14.90;4.53;;;22.10;56.00;;;;;;5152725;28;20050;-48
2021/11/28 01:27:09;;;;;;;21.27;4.18;;;22.10;55.90;;;;;;5160258;28;20041;-48
2021/11/28 01:29:42;;;;;;;19.17;3.58;;;22.10;56.00;;;;;;5177614;28;20053;-51
2021/11/28 01:32:18;;;;;;;15.43;4.00;;;22.10;56.00;;;;;;5178650;28;20057;-45
2021/11/28 01:34:50;;;;;;;25.27;4.55;;;22.10;56.10;;;;;;5152097;28;20053;-47
2021/11/28 01:37:23;;;;;;;18.45;4.53;;;22.10;56.00;;;;;;5178490;28;20053;-50
2021/11/28 01:39:55;;;;;;;24.05;4.28;;;22.10;56.10;;;;;;5169353;28;20705;-45
2021/11/28 01:42:41;;;;;;;17.15;3.90;;;22.10;56.10;;;;;;5151976;28;20042;-53
2021/11/28 01:45:26;;;;;;;25.85;4.80;;;22.10;56.10;;;;;;5172863;28;20057;-51
2021/11/28 01:48:02;;;;;;;17.42;4.15;;;22.10;56.30;;;;;;5161551;28;20497;-49
2021/11/28 01:50:37;;;;;;;20.98;4.50;;;22.10;56.40;;;;;;5154886;28;20046;-53
2021/11/28 01:53:19;;;;;;;13.95;4.18;;;22.10;56.40;;;;;;5151094;28;20058;-47
2021/11/28 01:55:52;;;;;;;27.48;4.13;;;22.10;56.50;;;;;;5115910;28;20428;-47
2021/11/28 01:58:45;;;;;;;14.60;4.07;;;22.10;56.40;;;;;;5149202;28;20107;-53
2021/11/28 02:01:20;;;;;;;13.05;4.00;;;22.10;56.40;;;;;;5138244;28;20061;-48
2021/11/28 02:03:53;;;;;;;19.02;3.38;;;22.10;56.60;;;;;;5155094;28;20600;-47
2021/11/28 02:06:25;;;;;;;20.90;4.20;;;22.00;56.40;;;;;;5147248;28;20449;-50
2021/11/28 02:08:59;;;;;;;14.10;4.38;;;22.00;56.40;;;;;;5154048;28;20228;-47
2021/11/28 02:11:32;;;;;;;;;;;22.00;56.50;;;;;;5160985;28;20037;-49
2021/11/28 02:14:04;;;;;;;15.95;3.20;;;22.00;56.60;;;;;;5179702;28;19921;-47
2021/11/28 02:16:39;;;;;;;13.63;3.50;;;22.00;57.20;;;;;;5164455;28;20052;-50
2021/11/28 02:19:16;;;;;;;12.50;3.20;;;22.00;56.50;;;;;;5149516;28;20058;-53
2021/11/28 02:21:48;;;;;;;15.95;3.65;;;22.00;56.50;;;;;;5136757;28;20109;-50
2021/11/28 02:24:21;;;;;;;14.90;4.20;;;22.00;56.60;;;;;;5164634;28;20148;-51
2021/11/28 02:26:53;;;;;;;15.98;4.38;;;22.00;56.60;;;;;;5170152;28;20308;-48
2021/11/28 02:29:26;;;;;;;18.90;3.70;;;22.00;57.20;;;;;;5122359;28;20604;-53
2021/11/28 02:31:59;;;;;;;13.57;4.03;;;22.00;56.60;;;;;;5143517;28;20304;-52
2021/11/28 02:34:32;;;;;;;16.45;4.07;;;22.00;56.50;;;;;;5166595;28;20494;-52
2021/11/28 02:37:05;;;;;;;22.27;5.13;;;22.00;56.60;;;;;;5153838;28;20041;-52
2021/11/28 02:39:40;;;;;;;16.13;3.72;;;22.00;56.60;;;;;;5141877;28;20531;-50
2021/11/28 02:42:18;;;;;;;22.02;3.78;;;22.00;56.70;;;;;;5143397;28;20661;-48
2021/11/28 02:44:51;;;;;;;14.50;3.60;;;22.00;56.80;;;;;;5152110;28;20054;-49
2021/11/28 02:47:24;;;;;;;14.57;3.53;;;22.00;56.80;;;;;;5151216;28;20084;-53
2021/11/28 02:49:56;;;;;;;14.60;4.10;;;22.00;56.70;;;;;;5168127;28;20041;-53
2021/11/28 02:52:29;;;;;;;17.27;3.23;;;22.00;56.80;;;;;;5157188;28;20735;-51
2021/11/28 02:55:03;;;;;;;9.90;2.67;;;22.00;56.80;;;;;;5146215;28;20489;-50
2021/11/28 02:57:36;;;;;;;18.75;3.85;;;22.00;57.40;;;;;;5163541;28;20305;-48
2021/11/28 03:00:10;;;;;;;12.15;3.53;;;22.00;56.80;;;;;;5164143;28;20057;-49
2021/11/28 03:02:45;;;;;;;9.60;2.90;;;22.00;56.70;;;;;;5131949;28;20061;-51
2021/11/28 03:05:27;;;;;;;8.00;2.95;;;22.00;56.80;;;;;;5151764;28;20057;-51
2021/11/28 03:08:01;;;;;;;16.48;3.10;;;22.00;56.80;;;;;;5148114;28;20510;-48
2021/11/28 03:10:44;;;;;;;11.32;2.80;;;22.00;56.80;;;;;;5147310;28;20052;-54
2021/11/28 03:13:23;;;;;;;14.60;3.30;;;22.00;56.90;;;;;;5150368;28;20041;-52
2021/11/28 03:16:00;;;;;;;15.32;3.08;;;22.00;56.80;;;;;;5137381;28;20054;-47
2021/11/28 03:18:34;;;;;;;15.00;3.97;;;22.00;56.80;;;;;;5117902;28;20062;-52
2021/11/28 03:21:28;;;;;;;8.85;2.83;;;22.00;56.80;;;;;;5154830;28;20049;-52
2021/11/28 03:24:03;;;;;;;15.02;2.47;;;22.00;56.80;;;;;;5167883;28;21078;-50
2021/11/28 03:26:41;;;;;;;11.48;2.58;;;22.00;56.80;;;;;;5143509;28;20494;-50
2021/11/28 03:29:20;;;;;;;9.77;2.80;;;22.00;56.80;;;;;;5153685;28;20068;-52
2021/11/28 03:32:18;;;;;;;11.25;3.22;;;21.90;56.70;;;;;;5155605;28;20417;-50
2021/11/28 03:35:10;;;;;;;14.57;3.35;;;21.90;56.80;;;;;;5164294;28;20541;-51
2021/11/28 03:37:43;;;;;;;12.40;3.22;;;21.90;56.90;;;;;;5167574;28;20632;-51
2021/11/28 03:40:16;;;;;;;8.30;2.53;;;21.90;56.90;;;;;;5166394;28;20049;-52
2021/11/28 03:42:48;;;;;;;9.40;2.47;;;21.90;56.90;;;;;;5146832;28;20451;-54
2021/11/28 03:45:21;;;;;;;13.70;3.15;;;21.90;56.90;;;;;;5155004;28;20311;-51
2021/11/28 03:48:03;;;;;;;8.43;2.08;;;21.90;56.90;;;;;;5157138;28;20464;-48
2021/11/28 03:50:39;;;;;;;10.35;2.70;;;21.90;56.80;;;;;;5135091;28;20619;-48
2021/11/28 03:53:13;;;;;;;16.75;2.80;;;21.90;56.80;;;;;;5151066;28;20524;-51
2021/11/28 03:55:46;;;;;;;11.18;3.35;;;21.90;56.80;;;;;;5148713;28;20354;-54
2021/11/28 03:58:19;;;;;;;9.77;2.42;;;21.90;56.80;;;;;;5148769;28;20061;-51
2021/11/28 04:00:51;;;;;;;9.93;2.30;;;21.90;56.80;;;;;;5151318;28;20046;-47
2021/11/28 04:03:25;;;;;;;11.07;3.40;;;21.90;56.90;;;;;;5168326;28;20052;-51
2021/11/28 04:05:58;;;;;;;7.37;2.10;;;21.90;57.00;;;;;;5133697;28;20057;-51
2021/11/28 04:08:33;;;;;;;9.95;2.60;;;21.90;57.00;;;;;;5144988;28;20856;-52
2021/11/28 04:11:05;;;;;;;10.80;2.55;;;21.90;57.00;;;;;;5146908;28;20042;-48
2021/11/28 04:13:39;;;;;;;8.63;2.45;;;21.90;57.00;;;;;;5148848;28;20482;-48
2021/11/28 04:16:11;;;;;;;4.93;1.93;;;21.90;57.10;;;;;;5157682;28;20105;-53
2021/11/28 04:18:44;;;;;;;10.07;2.70;;;21.90;57.10;;;;;;5126237;28;20046;-48
2021/11/28 04:21:21;;;;;;;7.85;2.08;;;21.90;57.00;;;;;;5144782;28;20566;-50
2021/11/28 04:23:54;;;;;;;9.73;2.33;;;21.90;57.00;;;;;;5149427;28;20482;-51
2021/11/28 04:26:28;;;;;;;10.15;2.28;;;21.90;57.10;;;;;;5166289;28;20053;-47
2021/11/28 04:29:03;;;;;;;8.15;2.20;;;21.90;57.20;;;;;;5139930;28;20077;-53
2021/11/28 04:31:37;;;;;;;5.93;2.47;;;21.90;57.20;;;;;;5124063;28;20585;-46
2021/11/28 04:34:10;;;;;;;;;;;21.90;57.10;;;;;;5143086;28;20069;-47
2021/11/28 04:36:43;;;;;;;13.98;2.45;;;21.80;57.10;;;;;;5150740;28;19925;-51
2021/11/28 04:39:16;;;;;;;5.27;1.83;;;21.90;57.20;;;;;;5149035;28;20045;-46
2021/11/28 04:41:49;;;;;;;8.77;2.08;;;21.90;57.20;;;;;;5137844;28;20060;-46
2021/11/28 04:44:23;;;;;;;7.35;2.40;;;21.90;57.10;;;;;;5147349;28;20413;-55
2021/11/28 04:46:56;;;;;;;9.48;2.22;;;21.90;57.10;;;;;;5148287;28;20643;-50
2021/11/28 04:49:29;;;;;;;6.00;1.95;;;21.90;57.10;;;;;;5152862;28;20427;-46
2021/11/28 04:52:01;;;;;;;22.25;3.92;;;21.90;57.20;;;;;;5139598;28;20042;-52
2021/11/28 04:54:34;;;;;;;10.50;2.40;;;21.90;57.20;;;;;;5161865;28;20049;-53
2021/11/28 04:57:07;;;;;;;8.40;2.50;;;21.90;57.20;;;;;;5154015;28;20061;-47
2021/11/28 04:59:40;;;;;;;12.38;3.45;;;21.90;57.30;;;;;;5155018;28;20045;-46
2021/11/28 05:02:13;;;;;;;10.15;2.65;;;21.90;57.30;;;;;;5155497;28;20437;-51
2021/11/28 05:04:48;;;;;;;11.40;2.40;;;21.90;57.30;;;;;;5121210;28;20045;-52
2021/11/28 05:07:54;;;;;;;12.85;2.50;;;21.90;57.30;;;;;;5126335;28;20053;-46
2021/11/28 05:10:27;;;;;;;9.48;2.17;;;21.90;57.30;;;;;;5140582;28;20437;-51
2021/11/28 05:13:03;;;;;;;10.80;1.98;;;21.90;57.30;;;;;;5135353;28;20069;-49
2021/11/28 05:15:36;;;;;;;9.02;2.17;;;21.90;57.40;;;;;;5123522;28;20092;-49
2021/11/28 05:18:29;;;;;;;15.57;3.25;;;21.90;57.40;;;;;;5141495;28;20045;-48
2021/11/28 05:21:22;;;;;;;9.48;2.35;;;21.90;57.50;;;;;;5151267;28;20049;-48
2021/11/28 05:23:54;;;;;;;9.93;2.83;;;21.90;57.50;;;;;;5119913;28;20544;-56
2021/11/28 05:26:32;;;;;;;10.13;2.13;;;21.90;57.50;;;;;;5129130;28;20293;-50
2021/11/28 05:29:06;;;;;;;9.27;2.17;;;21.90;57.50;;;;;;5159275;28;20050;-52
2021/11/28 05:31:39;;;;;;;;;;;21.90;57.50;;;;;;5118824;28;20553;-49
2021/11/28 05:34:43;;;;;;;11.98;2.25;;;21.80;57.60;;;;;;5133671;28;19930;-53
2021/11/28 05:37:33;;;;;;;9.05;1.80;;;21.90;57.50;;;;;;5148815;28;20062;-46
2021/11/28 05:40:12;;;;;;;9.73;2.70;;;21.90;57.50;;;;;;5145897;28;20739;-48
2021/11/28 05:42:48;;;;;;;;;;;21.90;57.50;;;;;;5140963;28;20332;-52
2021/11/28 05:45:24;;;;;;;9.43;2.60;;;21.90;57.60;;;;;;5142323;28;19928;-55
2021/11/28 05:48:19;;;;;;;11.68;2.38;;;22.00;57.50;;;;;;5149006;28;20045;-53
2021/11/28 05:51:18;;;;;;;17.85;3.15;;;22.00;57.50;;;;;;5138212;28;20409;-51
2021/11/28 05:53:51;;;;;;;11.90;2.05;;;22.00;57.50;;;;;;5163540;28;20052;-51
2021/11/28 05:56:24;;;;;;;11.20;2.05;;;22.10;57.50;;;;;;5143034;28;20041;-50
2021/11/28 05:58:57;;;;;;;10.25;2.63;;;22.10;57.40;;;;;;5127222;28;20813;-52
2021/11/28 06:01:30;;;;;;;8.95;2.45;;;22.10;57.40;;;;;;5116495;28;20049;-46
2021/11/28 06:04:04;;;;;;;9.52;1.90;;;22.10;57.30;;;;;;5122243;28;20425;-45
2021/11/28 06:06:55;;;;;;;8.93;2.00;;;22.10;57.30;;;;;;5152271;28;20495;-49
2021/11/28 06:09:35;;;;;;;5.95;1.73;;;22.10;57.20;;;;;;5145073;28;20056;-46
2021/11/28 06:12:08;;;;;;;9.80;1.98;;;22.10;57.20;;;;;;5143215;28;20053;-48
2021/11/28 06:14:41;;;;;;;7.20;1.97;;;22.10;57.20;;;;;;5153743;28;21124;-47
2021/11/28 06:17:19;;;;;;;9.38;1.90;;;22.10;57.20;;;;;;5152092;28;20045;-49
2021/11/28 06:20:11;;;;;;;6.25;1.85;;;22.20;57.30;;;;;;5142401;28;20505;-47
2021/11/28 06:23:03;;;;;;;7.13;2.55;;;22.10;57.10;;;;;;5137368;28;20060;-51
2021/11/28 06:25:36;;;;;;;8.02;2.05;;;22.20;57.20;;;;;;5144564;28;20072;-51
2021/11/28 06:28:29;;;;;;;8.18;1.70;;;22.20;57.20;;;;;;5123232;28;20033;-54
2021/11/28 06:31:03;;;;;;;8.15;2.15;;;22.20;57.10;;;;;;5157656;28;20053;-50
2021/11/28 06:34:07;;;;;;;12.70;2.08;;;22.20;57.10;;;;;;5154875;28;20073;-49
2021/11/28 06:36:59;;;;;;;8.57;1.80;;;22.20;57.20;;;;;;5147209;28;20445;-52
2021/11/28 06:39:51;;;;;;;8.55;1.60;;;22.20;57.10;;;;;;5143183;28;20054;-46
2021/11/28 06:42:46;;;;;;;11.50;1.85;;;22.20;57.20;;;;;;5134105;28;20068;-49
2021/11/28 06:45:19;;;;;;;8.43;1.80;;;22.20;57.20;;;;;;5162892;28;20061;-50
2021/11/28 06:47:53;;;;;;;4.82;2.10;;;22.30;57.20;;;;;;5146921;28;20461;-49
2021/11/28 06:50:27;;;;;;;;;;;22.20;57.10;;;;;;5112571;28;20045;-52
2021/11/28 06:53:31;;;;;;;8.75;1.92;;;22.20;57.20;;;;;;5139277;28;20451;-54
2021/11/28 06:56:22;;;;;;;11.07;2.20;;;22.20;57.20;;;;;;5159492;28;20058;-50
2021/11/28 06:59:03;;;;;;;7.22;1.98;;;22.20;57.10;;;;;;5144931;28;20053;-51
2021/11/28 07:01:38;;;;;;;6.00;1.60;;;22.30;57.20;;;;;;5157730;28;20661;-51
2021/11/28 07:04:34;;;;;;;7.20;1.58;;;22.30;57.20;;;;;;5126505;28;20494;-52
2021/11/28 07:07:28;;;;;;;5.25;1.75;;;22.30;57.20;;;;;;5126612;28;20049;-49
2021/11/28 07:10:12;;;;;;;11.10;1.92;;;22.30;57.20;;;;;;5150019;28;20065;-47
2021/11/28 07:12:45;;;;;;;5.75;1.60;;;22.30;57.20;;;;;;5126912;28;20834;-54
2021/11/28 07:15:24;;;;;;;8.48;1.75;;;22.30;57.10;;;;;;5139903;28;20061;-50
2021/11/28 07:17:58;;;;;;;20.90;3.10;;;22.30;57.10;;;;;;5154550;28;20065;-51
2021/11/28 07:20:49;;;;;;;10.90;2.60;;;22.30;57.10;;;;;;5158433;28;24638;-51
2021/11/28 07:23:26;;;;;;;6.80;2.22;;;22.30;57.00;;;;;;5141884;28;20056;-51
2021/11/28 07:26:04;;;;;;;5.07;1.38;;;22.30;57.00;;;;;;5136762;28;20056;-51
2021/11/28 07:28:48;;;;;;;7.53;1.60;;;22.40;57.00;;;;;;5143258;28;20050;-51
2021/11/28 07:31:25;;;;;;;7.07;1.92;;;22.40;57.10;;;;;;5119706;28;20062;-55
2021/11/28 07:34:13;;;;;;;5.63;1.83;;;22.30;56.90;;;;;;5136542;28;20053;-48
2021/11/28 07:36:45;;;;;;;8.13;2.20;;;22.40;57.00;;;;;;5134837;28;20116;-52
2021/11/28 07:39:20;;;;;;;7.87;1.40;;;22.40;56.90;;;;;;5140080;28;20673;-50
2021/11/28 07:41:57;;;;;;;10.02;1.67;;;22.40;56.90;;;;;;5134896;28;20054;-52
2021/11/28 07:44:42;;;;;;;6.05;1.52;;;22.40;57.00;;;;;;5139297;28;20596;-56
2021/11/28 07:47:18;;;;;;;6.70;1.38;;;22.40;57.00;;;;;;5117047;28;20045;-54
2021/11/28 07:50:27;;;;;;;6.00;1.63;;;22.30;56.90;;;;;;5104366;28;20065;-52
2021/11/28 07:52:59;;;;;;;13.60;1.75;;;22.40;56.90;;;;;;5139924;28;20049;-46
2021/11/28 07:55:33;;;;;;;;;;;22.40;57.00;;;;;;5125921;28;20049;-49
2021/11/28 07:58:05;;;;;;;5.72;1.80;;;22.30;57.00;;;;;;5139893;28;19929;-53
2021/11/28 08:00:53;;;;;;;8.38;2.65;;;22.30;57.00;;;;;;5135199;28;20057;-50
2021/11/28 08:03:34;;;;;;;8.02;1.77;;;22.30;57.00;;;;;;5144332;28;20876;-53
2021/11/28 08:06:26;;;;;;;9.43;2.05;;;22.30;57.00;;;;;;5149481;28;20417;-53
2021/11/28 08:09:01;;;;;;;13.00;2.20;;;22.40;57.20;;;;;;5137484;28;20457;-49
2021/11/28 08:11:54;;;;;;;20.67;2.72;;;22.40;57.20;;;;;;5150740;28;21479;-55
2021/11/28 08:14:27;;;;;;;10.65;2.03;;;22.40;57.40;;;;;;5108016;28;20057;-57
2021/11/28 08:16:59;;;;;;;7.03;1.55;;;22.40;57.30;;;;;;5155581;28;20057;-54
2021/11/28 08:19:32;;;;;;;19.13;2.83;;;22.40;57.50;;;;;;5112228;28;20403;-52
2021/11/28 08:22:04;;;;;;;15.52;2.47;;;22.40;57.40;;;;;;5135727;28;20053;-54
2021/11/28 08:24:37;;;;;;;9.52;2.65;;;22.40;57.40;;;;;;5147055;28;20041;-57
2021/11/28 08:27:10;;;;;;;18.35;2.47;;;22.40;57.30;;;;;;5137868;28;20054;-53
2021/11/28 08:29:43;;;;;;;9.77;2.70;;;22.40;57.30;;;;;;5108398;28;20694;-56
2021/11/28 08:32:48;;;;;;;15.98;2.45;;;22.40;57.30;;;;;;5141912;28;20054;-51
2021/11/28 08:35:43;;;;;;;17.88;2.65;;;22.40;57.50;;;;;;5124734;28;20058;-51
2021/11/28 08:38:16;;;;;;;17.07;2.73;;;22.40;57.40;;;;;;5131779;28;20045;-51
2021/11/28 08:40:49;;;;;;;36.67;3.13;;;22.40;57.20;;;;;;5126804;28;20678;-52
2021/11/28 08:43:21;;;;;;;27.00;3.47;;;22.40;57.20;;;;;;5140258;28;20042;-51
2021/11/28 08:45:54;;;;;;;37.13;2.95;;;22.50;56.90;;;;;;5149460;28;20060;-55
2021/11/28 08:48:27;;;;;;;26.15;3.58;;;22.40;56.60;;;;;;5163170;28;20044;-47
2021/11/28 08:51:01;;;;;;;21.90;3.00;;;22.40;56.30;;;;;;5120531;28;20049;-52
2021/11/28 08:53:34;;;;;;;18.92;3.85;;;22.40;56.00;;;;;;5141180;28;20517;-48
2021/11/28 08:56:07;;;;;;;16.75;2.85;;;22.50;56.30;;;;;;5131522;28;20060;-47
2021/11/28 08:58:41;;;;;;;18.60;2.20;;;22.50;56.60;;;;;;5127877;28;20054;-53
2021/11/28 09:01:13;;;;;;;23.33;3.15;;;22.50;56.20;;;;;;5146374;28;20072;-56
2021/11/28 09:03:46;;;;;;;17.38;2.15;;;22.50;55.80;;;;;;5139594;28;20042;-47
2021/11/28 09:06:18;;;;;;;15.77;1.98;;;22.40;55.40;;;;;;5142659;28;20912;-56
2021/11/28 09:08:51;;;;;;;5.68;2.10;;;22.50;55.20;;;;;;5127272;28;20046;-47
2021/11/28 09:11:24;;;;;;;14.63;2.38;;;22.50;55.00;;;;;;5126741;28;20046;-49
2021/11/28 09:13:56;;;;;;;12.10;1.83;;;22.40;54.80;;;;;;5139353;28;20046;-51
2021/11/28 09:16:29;;;;;;;10.80;2.13;;;22.50;54.70;;;;;;5138265;28;20053;-55
2021/11/28 09:19:10;;;;;;;7.82;1.73;;;22.40;54.40;;;;;;5128418;28;20293;-51
2021/11/28 09:21:44;;;;;;;8.95;2.08;;;22.40;54.20;;;;;;5131077;28;20057;-49
2021/11/28 09:26:58;;;;;;;6.68;1.48;;;22.30;50.10;;;;;;5140434;28;20058;-54
2021/11/28 09:29:31;;;;;;;5.80;1.25;;;22.20;48.60;;;;;;5123496;28;20587;-55
2021/11/28 09:32:05;;;;;;;4.25;1.33;;;22.20;48.10;;;;;;5125941;28;20051;-51
2021/11/28 09:34:38;;;;;;;9.13;1.90;;;22.10;47.70;;;;;;5123375;28;20053;-53
2021/11/28 09:37:11;;;;;;;8.82;1.45;;;22.00;47.60;;;;;;5111998;28;20060;-47
2021/11/28 09:39:45;;;;;;;;;;;22.00;48.30;;;;;;5117778;28;20058;-52
2021/11/28 09:42:24;;;;;;;10.75;1.60;;;21.80;48.30;;;;;;5132849;28;19929;-50
2021/11/28 09:44:59;;;;;;;7.90;1.67;;;21.90;48.70;;;;;;5112301;28;20621;-46
2021/11/28 09:47:33;;;;;;;6.90;1.60;;;21.90;47.70;;;;;;5126401;28;20054;-48
2021/11/28 09:50:09;;;;;;;35.10;3.42;;;21.90;47.50;;;;;;5127752;28;20050;-49
2021/11/28 09:52:43;;;;;;;37.90;3.95;;;21.90;47.40;;;;;;5113210;28;20414;-46
2021/11/28 09:55:22;;;;;;;16.98;2.20;;;21.80;46.90;;;;;;5141016;28;20050;-46
2021/11/28 09:57:56;;;;;;;27.52;2.75;;;21.80;45.40;;;;;;5130269;28;20057;-50
2021/11/28 10:00:29;;;;;;;14.93;1.98;;;21.70;46.80;;;;;;5140923;28;20053;-48
2021/11/28 10:03:03;;;;;;;19.75;2.67;;;21.70;47.80;;;;;;5135452;28;20056;-48
2021/11/28 10:05:35;;;;;;;;;;;21.80;48.40;;;;;;5139624;28;20049;-52
2021/11/28 10:08:08;;;;;;;11.63;2.10;;;21.70;48.90;;;;;;5118816;28;19926;-48
2021/11/28 10:10:42;;;;;;;16.50;2.67;;;21.80;49.00;;;;;;5108570;28;20476;-51
2021/11/28 10:13:15;;;;;;;18.35;2.38;;;21.80;49.40;;;;;;5135219;28;20073;-48
2021/11/28 10:15:50;;;;;;;12.05;2.15;;;21.80;50.30;;;;;;5138563;28;20497;-50
2021/11/28 10:18:23;;;;;;;19.20;2.10;;;21.90;50.20;;;;;;5127005;28;20050;-49
2021/11/28 10:20:56;;;;;;;11.02;1.98;;;21.90;50.60;;;;;;5136554;28;20049;-54
2021/11/28 10:23:29;;;;;;;18.38;2.42;;;21.90;50.80;;;;;;5156331;28;20414;-50
2021/11/28 10:26:17;;;;;;;16.87;1.90;;;21.90;50.80;;;;;;5162928;28;20073;-48
2021/11/28 10:29:11;;;;;;;8.75;1.70;;;22.00;51.10;;;;;;5151159;28;20039;-48
2021/11/28 10:31:56;;;;;;;14.97;2.13;;;22.00;51.20;;;;;;5140823;28;20406;-50
2021/11/28 10:34:36;;;;;;;8.35;2.22;;;22.00;51.50;;;;;;5128228;28;20051;-51
2021/11/28 10:37:18;;;;;;;19.00;2.00;;;22.00;51.60;;;;;;5142619;28;20046;-51
2021/11/28 10:39:55;;;;;;;10.73;1.40;;;22.00;51.60;;;;;;5137614;28;20057;-52
2021/11/28 10:42:31;;;;;;;11.32;1.75;;;22.00;51.70;;;;;;5154792;28;20053;-45
2021/11/28 10:45:04;;;;;;;4.50;1.73;;;22.10;51.90;;;;;;5140120;28;20060;-46
2021/11/28 10:47:41;;;;;;;7.53;1.13;;;22.10;52.00;;;;;;5155756;28;20058;-52
2021/11/28 10:50:16;;;;;;;11.55;2.33;;;22.10;52.20;;;;;;5153936;28;20046;-46
2021/11/28 10:52:52;;;;;;;13.20;1.92;;;22.10;52.20;;;;;;5141600;28;20049;-50
2021/11/28 10:55:27;;;;;;;6.32;1.52;;;22.10;52.10;;;;;;5131040;28;20046;-51
2021/11/28 10:58:09;;;;;;;10.18;1.92;;;22.10;52.10;;;;;;5144619;28;20057;-49
2021/11/28 11:01:08;;;;;;;15.27;2.20;;;22.10;52.30;;;;;;5147829;28;20046;-48
2021/11/28 11:03:48;;;;;;;11.88;2.13;;;22.10;52.20;;;;;;5154717;28;20409;-47
2021/11/28 11:06:26;;;;;;;16.27;1.45;;;22.20;52.40;;;;;;5150380;28;20409;-49
2021/11/28 11:09:23;;;;;;;12.20;1.65;;;22.20;52.60;;;;;;5153580;28;20053;-51
2021/11/28 11:11:56;;;;;;;6.32;1.50;;;22.20;52.70;;;;;;5170961;28;20746;-52
2021/11/28 11:14:41;;;;;;;17.65;2.47;;;22.20;52.80;;;;;;5155703;28;20037;-48
2021/11/28 11:17:14;;;;;;;7.90;1.15;;;22.20;52.90;;;;;;5145547;28;20486;-50
2021/11/28 11:19:48;;;;;;;4.72;1.60;;;22.20;53.00;;;;;;5162991;28;20061;-49
2021/11/28 11:22:30;;;;;;;11.25;1.63;;;22.20;53.30;;;;;;5127799;28;20057;-53
2021/11/28 11:25:15;;;;;;;19.20;1.83;;;22.30;53.20;;;;;;5155978;28;20068;-51
2021/11/28 11:27:49;;;;;;;9.98;1.60;;;22.30;53.30;;;;;;5124422;28;21063;-50
2021/11/28 11:30:27;;;;;;;16.80;1.73;;;22.30;53.40;;;;;;5119644;28;20042;-51
2021/11/28 11:33:05;;;;;;;13.95;1.77;;;22.30;53.50;;;;;;5137788;28;20057;-50
2021/11/28 11:35:40;;;;;;;14.02;1.80;;;22.30;53.60;;;;;;5132901;28;20057;-46
2021/11/28 11:38:16;;;;;;;7.70;1.27;;;22.30;53.40;;;;;;5142497;28;20453;-50
2021/11/28 11:40:49;;;;;;;8.82;1.65;;;22.30;53.30;;;;;;5154411;28;20438;-49
2021/11/28 11:43:22;;;;;;;7.57;1.20;;;22.40;53.30;;;;;;5127282;28;20057;-51
2021/11/28 11:45:55;;;;;;;11.60;1.77;;;22.30;53.10;;;;;;5122139;28;20254;-53
2021/11/28 11:48:27;;;;;;;8.45;1.85;;;22.40;53.30;;;;;;5143724;28;21315;-51
2021/11/28 11:51:04;;;;;;;11.03;1.43;;;22.40;53.20;;;;;;5105380;28;20617;-52
2021/11/28 11:53:37;;;;;;;14.85;1.40;;;22.40;53.20;;;;;;5131416;28;20050;-51
2021/11/28 11:56:17;;;;;;;11.25;2.47;;;22.30;53.20;;;;;;5144990;28;20045;-53
2021/11/28 11:59:05;;;;;;;8.52;1.30;;;22.40;53.30;;;;;;5138588;28;20836;-52
2021/11/28 12:01:39;;;;;;;8.52;1.52;;;22.40;53.30;;;;;;5140027;28;20588;-49
2021/11/28 12:04:50;;;;;;;5.65;1.40;;;22.40;53.20;;;;;;5139609;28;20049;-54
2021/11/28 12:07:48;;;;;;;10.10;1.63;;;22.40;53.00;;;;;;5143121;28;20049;-51
2021/11/28 12:10:33;;;;;;;8.00;1.13;;;22.30;52.90;;;;;;5139526;28;20452;-52
2021/11/28 12:13:12;;;;;;;10.48;1.40;;;22.40;52.80;;;;;;5141941;28;20049;-55
2021/11/28 12:15:49;;;;;;;6.50;1.95;;;22.40;52.80;;;;;;5138177;28;20504;-47
2021/11/28 12:18:34;;;;;;;6.70;1.52;;;22.30;52.70;;;;;;5124868;28;20048;-52
2021/11/28 12:21:21;;;;;;;4.95;1.17;;;22.40;52.90;;;;;;5133914;28;20053;-51
2021/11/28 12:24:12;;;;;;;5.70;1.05;;;22.30;52.70;;;;;;5122285;28;20045;-51
2021/11/28 12:26:45;;;;;;;6.40;1.73;;;22.40;53.00;;;;;;5131994;28;20060;-50
2021/11/28 12:29:24;;;;;;;5.40;1.20;;;22.40;53.00;;;;;;5130528;28;20045;-55
2021/11/28 12:32:14;;;;;;;4.15;1.25;;;22.40;53.00;;;;;;5139708;28;20038;-53
2021/11/28 12:35:06;;;;;;;7.82;1.48;;;22.40;53.30;;;;;;5132628;28;20414;-53
2021/11/28 12:37:48;;;;;;;3.47;0.98;;;22.40;53.20;;;;;;5132960;28;20493;-49
2021/11/28 12:40:27;;;;;;;2.25;1.30;;;22.40;53.10;;;;;;5125110;28;20507;-51
2021/11/28 12:43:20;;;;;;;6.78;1.15;;;22.40;53.00;;;;;;5139895;28;20058;-46
2021/11/28 12:45:53;;;;;;;9.23;2.03;;;22.40;53.30;;;;;;5134190;28;20050;-50
2021/11/28 12:48:26;;;;;;;5.60;1.10;;;22.40;53.00;;;;;;5137646;28;20046;-55
2021/11/28 12:51:04;;;;;;;12.27;2.25;;;22.40;53.10;;;;;;5134761;28;20050;-49
2021/11/28 12:53:41;;;;;;;5.65;1.45;;;22.40;53.00;;;;;;5130835;28;20046;-48
2021/11/28 12:56:13;;;;;;;9.02;1.25;;;22.50;53.20;;;;;;5123261;28;20054;-52
2021/11/28 12:59:09;;;;;;;7.27;1.20;;;22.50;53.40;;;;;;5116475;28;20045;-47
2021/11/28 13:02:01;;;;;;;10.23;1.35;;;22.40;53.60;;;;;;5141140;28;20073;-50
2021/11/28 13:04:40;;;;;;;8.55;1.60;;;22.40;53.70;;;;;;5132270;28;20060;-51
2021/11/28 13:07:26;;;;;;;9.65;1.55;;;22.50;53.90;;;;;;5136356;28;20922;-54
2021/11/28 13:10:27;;;;;;;12.18;1.52;;;22.50;54.00;;;;;;5149891;28;20057;-51
2021/11/28 13:13:01;;;;;;;7.22;1.38;;;22.50;54.20;;;;;;5138661;28;20554;-48
2021/11/28 13:15:35;;;;;;;;;;;22.50;54.30;;;;;;5130069;28;20057;-49
2021/11/28 13:18:10;;;;;;;11.10;1.85;;;22.50;54.40;;;;;;5161913;28;20404;-48
2021/11/28 13:21:10;;;;;;;4.43;1.27;;;22.50;54.50;;;;;;5132062;28;20053;-51
2021/11/28 13:24:06;;;;;;;6.15;1.70;;;22.50;54.40;;;;;;5130010;28;20062;-50
2021/11/28 13:26:57;;;;;;;6.70;1.35;;;22.50;54.50;;;;;;5150317;28;20054;-52
2021/11/28 13:30:02;;;;;;;7.13;1.30;;;22.60;54.60;;;;;;5128825;28;20461;-52
2021/11/28 13:32:35;;;;;;;9.20;1.60;;;22.60;54.60;;;;;;5154949;28;20050;-51
2021/11/28 13:35:15;;;;;;;6.85;1.10;;;22.60;54.70;;;;;;5146505;28;20438;-49
2021/11/28 13:37:48;;;;;;;8.55;1.60;;;22.60;54.70;;;;;;5161115;28;20038;-50
2021/11/28 13:40:21;;;;;;;8.23;1.23;;;22.60;54.90;;;;;;5156429;28;20057;-52
2021/11/28 13:42:53;;;;;;;6.43;1.05;;;22.60;54.70;;;;;;5173098;28;20045;-49
2021/11/28 13:45:25;;;;;;;7.35;1.27;;;22.60;54.80;;;;;;5170721;28;20536;-51
2021/11/28 13:47:58;;;;;;;9.10;1.42;;;22.60;54.90;;;;;;5192288;28;20050;-48